sensor_id;sensor_type;location;lat;lon;timestamp;P1;durP1;ratioP1;P2;durP2;ratioP2
28623;SDS011;15813;46.932;19.658;2023-04-03T00:02:21;4.22;;;2.75;;
28623;SDS011;15813;46.932;19.658;2023-04-03T00:04:46;11.07;;;7.75;;
28623;SDS011;15813;46.932;19.658;2023-04-03T00:07:11;5.53;;;2.88;;
28623;SDS011;15813;46.932;19.658;2023-04-03T00:09:37;8.82;;;3.97;;
28623;SDS011;15813;46.932;19.658;2023-04-03T00:12:03;7.18;;;3.60;;
28623;SDS011;15813;46.932;19.658;2023-04-03T00:14:28;5.38;;;3.13;;
28623;SDS011;15813;46.932;19.658;2023-04-03T00:16:53;9.38;;;6.60;;
28623;SDS011;15813;46.932;19.658;2023-04-03T00:19:19;7.40;;;3.63;;
28623;SDS011;15813;46.932;19.658;2023-04-03T00:21:44;7.30;;;3.72;;
28623;SDS011;15813;46.932;19.658;2023-04-03T00:24:10;5.85;;;3.20;;
28623;SDS011;15813;46.932;19.658;2023-04-03T00:26:35;8.68;;;4.78;;
28623;SDS011;15813;46.932;19.658;2023-04-03T00:29:00;5.10;;;3.00;;
28623;SDS011;15813;46.932;19.658;2023-04-03T00:31:26;19.52;;;17.67;;
28623;SDS011;15813;46.932;19.658;2023-04-03T00:33:51;5.97;;;4.68;;
28623;SDS011;15813;46.932;19.658;2023-04-03T00:36:16;10.30;;;8.68;;
28623;SDS011;15813;46.932;19.658;2023-04-03T00:38:41;6.22;;;4.00;;
28623;SDS011;15813;46.932;19.658;2023-04-03T00:41:07;9.00;;;6.53;;
28623;SDS011;15813;46.932;19.658;2023-04-03T00:43:32;6.53;;;3.08;;
28623;SDS011;15813;46.932;19.658;2023-04-03T00:45:58;6.20;;;3.90;;
28623;SDS011;15813;46.932;19.658;2023-04-03T00:50:52;5.88;;;2.47;;
28623;SDS011;15813;46.932;19.658;2023-04-03T00:53:19;5.68;;;3.50;;
28623;SDS011;15813;46.932;19.658;2023-04-03T00:55:46;6.40;;;3.50;;
28623;SDS011;15813;46.932;19.658;2023-04-03T00:58:13;7.00;;;3.08;;
28623;SDS011;15813;46.932;19.658;2023-04-03T01:00:39;6.15;;;3.35;;
28623;SDS011;15813;46.932;19.658;2023-04-03T01:03:05;7.68;;;5.03;;
28623;SDS011;15813;46.932;19.658;2023-04-03T01:05:30;8.00;;;3.22;;
28623;SDS011;15813;46.932;19.658;2023-04-03T01:07:56;7.22;;;5.05;;
28623;SDS011;15813;46.932;19.658;2023-04-03T01:10:21;12.48;;;10.80;;
28623;SDS011;15813;46.932;19.658;2023-04-03T01:12:48;5.72;;;3.45;;
28623;SDS011;15813;46.932;19.658;2023-04-03T01:15:18;20.40;;;18.48;;
28623;SDS011;15813;46.932;19.658;2023-04-03T01:20:16;7.38;;;4.82;;
28623;SDS011;15813;46.932;19.658;2023-04-03T01:22:57;6.68;;;3.85;;
28623;SDS011;15813;46.932;19.658;2023-04-03T01:25:24;9.02;;;5.57;;
28623;SDS011;15813;46.932;19.658;2023-04-03T01:27:49;10.65;;;5.07;;
28623;SDS011;15813;46.932;19.658;2023-04-03T01:30:16;4.85;;;2.60;;
28623;SDS011;15813;46.932;19.658;2023-04-03T01:32:42;9.70;;;3.65;;
28623;SDS011;15813;46.932;19.658;2023-04-03T01:35:08;7.15;;;3.38;;
28623;SDS011;15813;46.932;19.658;2023-04-03T01:37:33;8.27;;;3.67;;
28623;SDS011;15813;46.932;19.658;2023-04-03T01:39:58;4.32;;;2.75;;
28623;SDS011;15813;46.932;19.658;2023-04-03T01:42:23;7.55;;;4.35;;
28623;SDS011;15813;46.932;19.658;2023-04-03T01:44:49;7.88;;;4.28;;
28623;SDS011;15813;46.932;19.658;2023-04-03T01:47:14;6.82;;;4.95;;
28623;SDS011;15813;46.932;19.658;2023-04-03T01:49:40;5.95;;;3.25;;
28623;SDS011;15813;46.932;19.658;2023-04-03T01:52:05;9.90;;;6.93;;
28623;SDS011;15813;46.932;19.658;2023-04-03T01:54:30;8.00;;;4.22;;
28623;SDS011;15813;46.932;19.658;2023-04-03T01:56:55;7.32;;;3.60;;
28623;SDS011;15813;46.932;19.658;2023-04-03T01:59:21;16.27;;;6.68;;
28623;SDS011;15813;46.932;19.658;2023-04-03T02:01:46;14.32;;;12.93;;
28623;SDS011;15813;46.932;19.658;2023-04-03T02:04:12;16.98;;;15.18;;
28623;SDS011;15813;46.932;19.658;2023-04-03T02:06:37;28.65;;;26.38;;
28623;SDS011;15813;46.932;19.658;2023-04-03T02:09:02;9.10;;;7.40;;
28623;SDS011;15813;46.932;19.658;2023-04-03T02:11:28;8.80;;;6.25;;
28623;SDS011;15813;46.932;19.658;2023-04-03T02:13:53;8.38;;;3.60;;
28623;SDS011;15813;46.932;19.658;2023-04-03T02:16:18;4.85;;;2.95;;
28623;SDS011;15813;46.932;19.658;2023-04-03T02:18:44;5.45;;;2.90;;
28623;SDS011;15813;46.932;19.658;2023-04-03T02:21:09;8.25;;;3.47;;
28623;SDS011;15813;46.932;19.658;2023-04-03T02:23:34;5.07;;;3.03;;
28623;SDS011;15813;46.932;19.658;2023-04-03T02:26:11;4.78;;;2.83;;
28623;SDS011;15813;46.932;19.658;2023-04-03T02:28:37;4.85;;;2.97;;
28623;SDS011;15813;46.932;19.658;2023-04-03T02:31:03;5.15;;;2.92;;
28623;SDS011;15813;46.932;19.658;2023-04-03T02:33:28;8.20;;;2.95;;
28623;SDS011;15813;46.932;19.658;2023-04-03T02:35:54;4.82;;;2.53;;
28623;SDS011;15813;46.932;19.658;2023-04-03T02:38:20;6.20;;;2.88;;
28623;SDS011;15813;46.932;19.658;2023-04-03T02:40:45;4.28;;;2.35;;
28623;SDS011;15813;46.932;19.658;2023-04-03T02:43:11;6.80;;;2.38;;
28623;SDS011;15813;46.932;19.658;2023-04-03T02:45:36;5.28;;;2.45;;
28623;SDS011;15813;46.932;19.658;2023-04-03T02:48:01;3.00;;;2.10;;
28623;SDS011;15813;46.932;19.658;2023-04-03T02:50:27;3.58;;;2.40;;
28623;SDS011;15813;46.932;19.658;2023-04-03T02:52:52;5.90;;;3.63;;
28623;SDS011;15813;46.932;19.658;2023-04-03T02:55:17;7.40;;;3.42;;
28623;SDS011;15813;46.932;19.658;2023-04-03T02:57:42;2.97;;;2.38;;
28623;SDS011;15813;46.932;19.658;2023-04-03T03:00:08;3.35;;;2.17;;
28623;SDS011;15813;46.932;19.658;2023-04-03T03:02:34;4.10;;;1.92;;
28623;SDS011;15813;46.932;19.658;2023-04-03T03:05:00;4.93;;;2.47;;
28623;SDS011;15813;46.932;19.658;2023-04-03T03:07:25;3.72;;;2.10;;
28623;SDS011;15813;46.932;19.658;2023-04-03T03:09:51;4.18;;;2.13;;
28623;SDS011;15813;46.932;19.658;2023-04-03T03:12:16;2.35;;;1.98;;
28623;SDS011;15813;46.932;19.658;2023-04-03T03:14:46;3.83;;;2.22;;
28623;SDS011;15813;46.932;19.658;2023-04-03T03:17:11;2.83;;;2.05;;
28623;SDS011;15813;46.932;19.658;2023-04-03T03:19:36;4.25;;;2.20;;
28623;SDS011;15813;46.932;19.658;2023-04-03T03:22:02;3.78;;;2.22;;
28623;SDS011;15813;46.932;19.658;2023-04-03T03:24:27;3.03;;;2.10;;
28623;SDS011;15813;46.932;19.658;2023-04-03T03:26:52;3.97;;;2.70;;
28623;SDS011;15813;46.932;19.658;2023-04-03T03:29:18;5.65;;;2.78;;
28623;SDS011;15813;46.932;19.658;2023-04-03T03:31:43;5.97;;;2.92;;
28623;SDS011;15813;46.932;19.658;2023-04-03T03:34:08;7.80;;;2.83;;
28623;SDS011;15813;46.932;19.658;2023-04-03T03:36:33;4.20;;;2.85;;
28623;SDS011;15813;46.932;19.658;2023-04-03T03:38:59;8.55;;;3.50;;
28623;SDS011;15813;46.932;19.658;2023-04-03T03:41:24;5.25;;;3.25;;
28623;SDS011;15813;46.932;19.658;2023-04-03T03:43:50;6.93;;;3.47;;
28623;SDS011;15813;46.932;19.658;2023-04-03T03:46:15;8.27;;;3.47;;
28623;SDS011;15813;46.932;19.658;2023-04-03T03:48:41;5.55;;;3.00;;
28623;SDS011;15813;46.932;19.658;2023-04-03T03:51:06;3.20;;;2.35;;
28623;SDS011;15813;46.932;19.658;2023-04-03T03:53:32;7.85;;;3.50;;
28623;SDS011;15813;46.932;19.658;2023-04-03T03:55:57;13.80;;;6.53;;
28623;SDS011;15813;46.932;19.658;2023-04-03T03:58:22;16.48;;;7.03;;
28623;SDS011;15813;46.932;19.658;2023-04-03T04:00:48;19.15;;;8.80;;
28623;SDS011;15813;46.932;19.658;2023-04-03T04:03:13;17.15;;;8.80;;
28623;SDS011;15813;46.932;19.658;2023-04-03T04:05:38;20.38;;;9.23;;
28623;SDS011;15813;46.932;19.658;2023-04-03T04:08:04;18.73;;;9.35;;
28623;SDS011;15813;46.932;19.658;2023-04-03T04:10:29;14.35;;;8.45;;
28623;SDS011;15813;46.932;19.658;2023-04-03T04:12:54;15.00;;;8.63;;
28623;SDS011;15813;46.932;19.658;2023-04-03T04:15:20;17.33;;;9.32;;
28623;SDS011;15813;46.932;19.658;2023-04-03T04:17:46;17.25;;;8.77;;
28623;SDS011;15813;46.932;19.658;2023-04-03T04:20:12;17.58;;;9.20;;
28623;SDS011;15813;46.932;19.658;2023-04-03T04:22:37;15.70;;;8.48;;
28623;SDS011;15813;46.932;19.658;2023-04-03T04:25:03;16.85;;;8.75;;
28623;SDS011;15813;46.932;19.658;2023-04-03T04:27:29;13.93;;;8.48;;
28623;SDS011;15813;46.932;19.658;2023-04-03T04:29:54;18.17;;;9.18;;
28623;SDS011;15813;46.932;19.658;2023-04-03T04:32:19;16.10;;;8.57;;
28623;SDS011;15813;46.932;19.658;2023-04-03T04:34:45;16.33;;;9.35;;
28623;SDS011;15813;46.932;19.658;2023-04-03T04:37:10;16.58;;;7.95;;
28623;SDS011;15813;46.932;19.658;2023-04-03T04:39:35;15.75;;;9.13;;
28623;SDS011;15813;46.932;19.658;2023-04-03T04:42:01;17.70;;;9.90;;
28623;SDS011;15813;46.932;19.658;2023-04-03T04:44:26;14.05;;;8.25;;
28623;SDS011;15813;46.932;19.658;2023-04-03T04:46:51;16.92;;;9.45;;
28623;SDS011;15813;46.932;19.658;2023-04-03T04:49:16;22.15;;;10.30;;
28623;SDS011;15813;46.932;19.658;2023-04-03T04:51:42;26.95;;;10.38;;
28623;SDS011;15813;46.932;19.658;2023-04-03T04:54:07;21.60;;;9.88;;
28623;SDS011;15813;46.932;19.658;2023-04-03T04:56:32;17.33;;;8.88;;
28623;SDS011;15813;46.932;19.658;2023-04-03T04:58:57;25.70;;;10.35;;
28623;SDS011;15813;46.932;19.658;2023-04-03T05:01:23;19.02;;;9.57;;
28623;SDS011;15813;46.932;19.658;2023-04-03T05:03:48;19.95;;;10.13;;
28623;SDS011;15813;46.932;19.658;2023-04-03T05:06:13;22.80;;;10.13;;
28623;SDS011;15813;46.932;19.658;2023-04-03T05:08:39;17.50;;;9.32;;
28623;SDS011;15813;46.932;19.658;2023-04-03T05:11:04;19.52;;;9.20;;
28623;SDS011;15813;46.932;19.658;2023-04-03T05:13:29;21.10;;;10.65;;
28623;SDS011;15813;46.932;19.658;2023-04-03T05:15:55;18.83;;;10.05;;
28623;SDS011;15813;46.932;19.658;2023-04-03T05:18:20;25.05;;;10.40;;
28623;SDS011;15813;46.932;19.658;2023-04-03T05:20:47;18.92;;;8.93;;
28623;SDS011;15813;46.932;19.658;2023-04-03T05:23:13;18.38;;;8.50;;
28623;SDS011;15813;46.932;19.658;2023-04-03T05:25:38;17.17;;;8.73;;
28623;SDS011;15813;46.932;19.658;2023-04-03T05:28:04;18.00;;;8.52;;
28623;SDS011;15813;46.932;19.658;2023-04-03T05:30:29;21.65;;;8.68;;
28623;SDS011;15813;46.932;19.658;2023-04-03T05:32:54;13.13;;;7.72;;
28623;SDS011;15813;46.932;19.658;2023-04-03T05:35:20;18.67;;;8.52;;
28623;SDS011;15813;46.932;19.658;2023-04-03T05:37:45;17.83;;;8.77;;
28623;SDS011;15813;46.932;19.658;2023-04-03T05:40:11;20.52;;;11.00;;
28623;SDS011;15813;46.932;19.658;2023-04-03T05:42:36;21.58;;;10.88;;
28623;SDS011;15813;46.932;19.658;2023-04-03T05:45:02;23.15;;;11.07;;
28623;SDS011;15813;46.932;19.658;2023-04-03T05:47:27;20.70;;;9.10;;
28623;SDS011;15813;46.932;19.658;2023-04-03T05:49:52;19.27;;;9.68;;
28623;SDS011;15813;46.932;19.658;2023-04-03T05:52:22;21.60;;;13.73;;
28623;SDS011;15813;46.932;19.658;2023-04-03T05:54:47;23.58;;;14.68;;
28623;SDS011;15813;46.932;19.658;2023-04-03T05:57:14;48.67;;;43.60;;
28623;SDS011;15813;46.932;19.658;2023-04-03T05:59:39;23.60;;;12.98;;
28623;SDS011;15813;46.932;19.658;2023-04-03T06:02:04;28.67;;;12.32;;
28623;SDS011;15813;46.932;19.658;2023-04-03T06:04:30;25.33;;;11.75;;
28623;SDS011;15813;46.932;19.658;2023-04-03T06:06:56;28.92;;;11.27;;
28623;SDS011;15813;46.932;19.658;2023-04-03T06:09:23;23.15;;;9.85;;
28623;SDS011;15813;46.932;19.658;2023-04-03T06:11:49;23.52;;;9.02;;
28623;SDS011;15813;46.932;19.658;2023-04-03T06:14:14;17.15;;;8.35;;
28623;SDS011;15813;46.932;19.658;2023-04-03T06:16:39;21.35;;;8.48;;
28623;SDS011;15813;46.932;19.658;2023-04-03T06:19:05;16.02;;;8.70;;
28623;SDS011;15813;46.932;19.658;2023-04-03T06:21:32;21.88;;;9.40;;
28623;SDS011;15813;46.932;19.658;2023-04-03T06:23:57;15.10;;;8.35;;
28623;SDS011;15813;46.932;19.658;2023-04-03T06:26:23;18.10;;;9.13;;
28623;SDS011;15813;46.932;19.658;2023-04-03T06:28:48;15.80;;;8.05;;
28623;SDS011;15813;46.932;19.658;2023-04-03T06:31:13;16.77;;;8.30;;
28623;SDS011;15813;46.932;19.658;2023-04-03T06:33:39;21.92;;;9.25;;
28623;SDS011;15813;46.932;19.658;2023-04-03T06:36:04;27.55;;;10.93;;
28623;SDS011;15813;46.932;19.658;2023-04-03T06:38:30;18.45;;;9.30;;
28623;SDS011;15813;46.932;19.658;2023-04-03T06:40:56;22.88;;;8.88;;
28623;SDS011;15813;46.932;19.658;2023-04-03T06:43:21;18.35;;;8.95;;
28623;SDS011;15813;46.932;19.658;2023-04-03T06:45:47;23.35;;;9.75;;
28623;SDS011;15813;46.932;19.658;2023-04-03T06:48:12;23.05;;;9.70;;
28623;SDS011;15813;46.932;19.658;2023-04-03T06:50:38;19.75;;;9.13;;
28623;SDS011;15813;46.932;19.658;2023-04-03T06:53:03;18.17;;;9.18;;
28623;SDS011;15813;46.932;19.658;2023-04-03T06:55:28;27.52;;;9.95;;
28623;SDS011;15813;46.932;19.658;2023-04-03T06:57:54;23.10;;;9.50;;
28623;SDS011;15813;46.932;19.658;2023-04-03T07:00:20;15.02;;;5.15;;
28623;SDS011;15813;46.932;19.658;2023-04-03T07:02:46;27.85;;;7.57;;
28623;SDS011;15813;46.932;19.658;2023-04-03T07:05:11;15.82;;;7.32;;
28623;SDS011;15813;46.932;19.658;2023-04-03T07:07:37;21.40;;;7.03;;
28623;SDS011;15813;46.932;19.658;2023-04-03T07:10:03;12.75;;;5.70;;
28623;SDS011;15813;46.932;19.658;2023-04-03T07:12:28;15.23;;;6.20;;
28623;SDS011;15813;46.932;19.658;2023-04-03T07:14:53;26.77;;;8.18;;
28623;SDS011;15813;46.932;19.658;2023-04-03T07:17:19;18.30;;;7.20;;
28623;SDS011;15813;46.932;19.658;2023-04-03T07:19:44;14.18;;;7.07;;
28623;SDS011;15813;46.932;19.658;2023-04-03T07:22:09;14.32;;;6.78;;
28623;SDS011;15813;46.932;19.658;2023-04-03T07:24:36;15.35;;;6.55;;
28623;SDS011;15813;46.932;19.658;2023-04-03T07:27:01;13.38;;;6.43;;
28623;SDS011;15813;46.932;19.658;2023-04-03T07:29:28;21.70;;;8.48;;
28623;SDS011;15813;46.932;19.658;2023-04-03T07:31:53;19.58;;;7.18;;
28623;SDS011;15813;46.932;19.658;2023-04-03T07:34:20;15.65;;;7.45;;
28623;SDS011;15813;46.932;19.658;2023-04-03T07:36:45;19.08;;;7.53;;
28623;SDS011;15813;46.932;19.658;2023-04-03T07:39:12;21.15;;;7.82;;
28623;SDS011;15813;46.932;19.658;2023-04-03T07:41:37;33.92;;;9.68;;
28623;SDS011;15813;46.932;19.658;2023-04-03T07:44:03;13.80;;;7.32;;
28623;SDS011;15813;46.932;19.658;2023-04-03T07:46:29;16.60;;;6.63;;
28623;SDS011;15813;46.932;19.658;2023-04-03T07:48:54;24.35;;;7.80;;
28623;SDS011;15813;46.932;19.658;2023-04-03T07:51:20;19.95;;;7.80;;
28623;SDS011;15813;46.932;19.658;2023-04-03T07:53:45;19.40;;;7.78;;
28623;SDS011;15813;46.932;19.658;2023-04-03T07:56:11;14.75;;;6.07;;
28623;SDS011;15813;46.932;19.658;2023-04-03T07:58:36;13.70;;;6.55;;
28623;SDS011;15813;46.932;19.658;2023-04-03T08:01:02;19.20;;;6.97;;
28623;SDS011;15813;46.932;19.658;2023-04-03T08:03:27;21.92;;;7.32;;
28623;SDS011;15813;46.932;19.658;2023-04-03T08:05:52;20.27;;;7.40;;
28623;SDS011;15813;46.932;19.658;2023-04-03T08:08:21;16.63;;;7.43;;
28623;SDS011;15813;46.932;19.658;2023-04-03T08:10:50;14.02;;;6.35;;
28623;SDS011;15813;46.932;19.658;2023-04-03T08:13:15;21.73;;;6.78;;
28623;SDS011;15813;46.932;19.658;2023-04-03T08:15:40;9.80;;;5.30;;
28623;SDS011;15813;46.932;19.658;2023-04-03T08:18:06;10.88;;;4.60;;
28623;SDS011;15813;46.932;19.658;2023-04-03T08:20:31;7.65;;;4.60;;
28623;SDS011;15813;46.932;19.658;2023-04-03T08:22:56;12.13;;;5.00;;
28623;SDS011;15813;46.932;19.658;2023-04-03T08:25:22;16.38;;;5.35;;
28623;SDS011;15813;46.932;19.658;2023-04-03T08:27:47;7.60;;;3.92;;
28623;SDS011;15813;46.932;19.658;2023-04-03T08:30:13;12.88;;;4.70;;
28623;SDS011;15813;46.932;19.658;2023-04-03T08:32:38;9.70;;;4.28;;
28623;SDS011;15813;46.932;19.658;2023-04-03T08:35:04;10.38;;;4.25;;
28623;SDS011;15813;46.932;19.658;2023-04-03T08:37:30;8.73;;;4.43;;
28623;SDS011;15813;46.932;19.658;2023-04-03T08:39:55;6.45;;;3.58;;
28623;SDS011;15813;46.932;19.658;2023-04-03T08:44:47;11.67;;;4.20;;
28623;SDS011;15813;46.932;19.658;2023-04-03T08:49:53;6.25;;;3.25;;
28623;SDS011;15813;46.932;19.658;2023-04-03T08:52:22;6.80;;;3.65;;
28623;SDS011;15813;46.932;19.658;2023-04-03T08:54:55;5.88;;;3.75;;
28623;SDS011;15813;46.932;19.658;2023-04-03T08:57:41;8.68;;;3.58;;
28623;SDS011;15813;46.932;19.658;2023-04-03T09:05:35;12.23;;;4.20;;
28623;SDS011;15813;46.932;19.658;2023-04-03T09:08:07;10.00;;;4.13;;
28623;SDS011;15813;46.932;19.658;2023-04-03T09:10:35;8.20;;;3.60;;
28623;SDS011;15813;46.932;19.658;2023-04-03T09:15:46;7.18;;;3.50;;
28623;SDS011;15813;46.932;19.658;2023-04-03T09:18:20;8.73;;;4.20;;
28623;SDS011;15813;46.932;19.658;2023-04-03T09:23:20;11.98;;;4.28;;
28623;SDS011;15813;46.932;19.658;2023-04-03T09:25:46;8.23;;;4.07;;
28623;SDS011;15813;46.932;19.658;2023-04-03T09:28:13;5.80;;;3.97;;
28623;SDS011;15813;46.932;19.658;2023-04-03T09:30:38;9.13;;;3.97;;
28623;SDS011;15813;46.932;19.658;2023-04-03T09:33:04;10.88;;;4.03;;
28623;SDS011;15813;46.932;19.658;2023-04-03T09:35:31;7.80;;;4.22;;
28623;SDS011;15813;46.932;19.658;2023-04-03T09:42:51;6.57;;;3.38;;
28623;SDS011;15813;46.932;19.658;2023-04-03T09:45:33;8.93;;;3.70;;
28623;SDS011;15813;46.932;19.658;2023-04-03T09:50:30;6.43;;;3.05;;
28623;SDS011;15813;46.932;19.658;2023-04-03T09:52:55;6.57;;;3.47;;
28623;SDS011;15813;46.932;19.658;2023-04-03T09:55:21;6.93;;;3.53;;
28623;SDS011;15813;46.932;19.658;2023-04-03T09:57:52;9.48;;;3.13;;
28623;SDS011;15813;46.932;19.658;2023-04-03T10:00:37;7.70;;;3.50;;
28623;SDS011;15813;46.932;19.658;2023-04-03T10:03:03;5.05;;;2.53;;
28623;SDS011;15813;46.932;19.658;2023-04-03T10:05:36;5.43;;;2.75;;
28623;SDS011;15813;46.932;19.658;2023-04-03T10:10:32;9.80;;;3.85;;
28623;SDS011;15813;46.932;19.658;2023-04-03T10:13:09;12.73;;;3.55;;
28623;SDS011;15813;46.932;19.658;2023-04-03T10:15:46;7.18;;;2.97;;
28623;SDS011;15813;46.932;19.658;2023-04-03T10:18:27;10.93;;;3.75;;
28623;SDS011;15813;46.932;19.658;2023-04-03T10:20:54;8.98;;;3.20;;
28623;SDS011;15813;46.932;19.658;2023-04-03T10:26:02;6.95;;;2.55;;
28623;SDS011;15813;46.932;19.658;2023-04-03T10:28:37;7.60;;;3.33;;
28623;SDS011;15813;46.932;19.658;2023-04-03T10:44:14;4.50;;;2.33;;
28623;SDS011;15813;46.932;19.658;2023-04-03T10:46:43;26.48;;;10.27;;
28623;SDS011;15813;46.932;19.658;2023-04-03T10:57:03;8.98;;;2.70;;
28623;SDS011;15813;46.932;19.658;2023-04-03T11:04:47;8.35;;;2.55;;
28623;SDS011;15813;46.932;19.658;2023-04-03T11:07:17;8.75;;;2.53;;
28623;SDS011;15813;46.932;19.658;2023-04-03T11:09:46;6.70;;;2.38;;
28623;SDS011;15813;46.932;19.658;2023-04-03T11:12:23;5.22;;;2.50;;
28623;SDS011;15813;46.932;19.658;2023-04-03T11:14:50;11.48;;;3.25;;
28623;SDS011;15813;46.932;19.658;2023-04-03T11:19:44;16.10;;;14.30;;
28623;SDS011;15813;46.932;19.658;2023-04-03T11:24:37;17.23;;;15.38;;
28623;SDS011;15813;46.932;19.658;2023-04-03T11:27:05;12.70;;;9.52;;
28623;SDS011;15813;46.932;19.658;2023-04-03T11:29:34;11.82;;;4.28;;
28623;SDS011;15813;46.932;19.658;2023-04-03T11:39:52;4.65;;;2.55;;
28623;SDS011;15813;46.932;19.658;2023-04-03T11:44:45;8.88;;;5.68;;
28623;SDS011;15813;46.932;19.658;2023-04-03T11:47:11;18.67;;;5.50;;
28623;SDS011;15813;46.932;19.658;2023-04-03T12:03:29;10.40;;;4.20;;
28623;SDS011;15813;46.932;19.658;2023-04-03T12:05:56;5.95;;;3.30;;
28623;SDS011;15813;46.932;19.658;2023-04-03T12:08:28;19.95;;;5.45;;
28623;SDS011;15813;46.932;19.658;2023-04-03T12:16:24;4.00;;;2.30;;
28623;SDS011;15813;46.932;19.658;2023-04-03T12:21:20;13.63;;;4.53;;
28623;SDS011;15813;46.932;19.658;2023-04-03T12:26:47;16.50;;;4.47;;
28623;SDS011;15813;46.932;19.658;2023-04-03T12:29:23;11.80;;;4.15;;
28623;SDS011;15813;46.932;19.658;2023-04-03T12:37:09;14.90;;;3.78;;
28623;SDS011;15813;46.932;19.658;2023-04-03T12:47:29;10.70;;;3.25;;
28623;SDS011;15813;46.932;19.658;2023-04-03T12:49:58;10.05;;;3.63;;
28623;SDS011;15813;46.932;19.658;2023-04-03T12:52:38;4.70;;;2.50;;
28623;SDS011;15813;46.932;19.658;2023-04-03T12:55:15;4.90;;;2.50;;
28623;SDS011;15813;46.932;19.658;2023-04-03T12:57:41;8.07;;;2.78;;
28623;SDS011;15813;46.932;19.658;2023-04-03T13:00:20;4.65;;;2.47;;
28623;SDS011;15813;46.932;19.658;2023-04-03T13:02:45;5.47;;;2.50;;
28623;SDS011;15813;46.932;19.658;2023-04-03T13:05:14;4.50;;;2.40;;
28623;SDS011;15813;46.932;19.658;2023-04-03T13:07:41;3.60;;;2.28;;
28623;SDS011;15813;46.932;19.658;2023-04-03T13:12:34;9.67;;;2.97;;
28623;SDS011;15813;46.932;19.658;2023-04-03T13:15:01;3.33;;;1.67;;
28623;SDS011;15813;46.932;19.658;2023-04-03T13:17:29;5.60;;;1.83;;
28623;SDS011;15813;46.932;19.658;2023-04-03T13:19:54;6.38;;;2.25;;
28623;SDS011;15813;46.932;19.658;2023-04-03T13:22:27;13.77;;;3.72;;
28623;SDS011;15813;46.932;19.658;2023-04-03T13:24:53;13.88;;;3.45;;
28623;SDS011;15813;46.932;19.658;2023-04-03T13:27:19;5.25;;;2.05;;
28623;SDS011;15813;46.932;19.658;2023-04-03T13:29:48;7.43;;;1.95;;
28623;SDS011;15813;46.932;19.658;2023-04-03T13:32:17;4.90;;;1.50;;
28623;SDS011;15813;46.932;19.658;2023-04-03T13:34:43;9.13;;;2.28;;
28623;SDS011;15813;46.932;19.658;2023-04-03T13:42:33;2.88;;;1.17;;
28623;SDS011;15813;46.932;19.658;2023-04-03T13:47:38;5.28;;;1.60;;
28623;SDS011;15813;46.932;19.658;2023-04-03T13:50:12;3.90;;;1.30;;
28623;SDS011;15813;46.932;19.658;2023-04-03T13:52:43;5.57;;;1.70;;
28623;SDS011;15813;46.932;19.658;2023-04-03T13:55:31;10.75;;;2.35;;
28623;SDS011;15813;46.932;19.658;2023-04-03T13:58:01;3.90;;;1.27;;
28623;SDS011;15813;46.932;19.658;2023-04-03T14:02:56;2.90;;;1.33;;
28623;SDS011;15813;46.932;19.658;2023-04-03T14:05:21;5.50;;;1.58;;
28623;SDS011;15813;46.932;19.658;2023-04-03T14:07:46;5.10;;;1.52;;
28623;SDS011;15813;46.932;19.658;2023-04-03T14:10:12;3.88;;;1.48;;
28623;SDS011;15813;46.932;19.658;2023-04-03T14:12:37;4.85;;;1.48;;
28623;SDS011;15813;46.932;19.658;2023-04-03T14:15:12;7.60;;;2.05;;
28623;SDS011;15813;46.932;19.658;2023-04-03T14:17:41;4.70;;;1.63;;
28623;SDS011;15813;46.932;19.658;2023-04-03T14:20:10;11.45;;;2.58;;
28623;SDS011;15813;46.932;19.658;2023-04-03T14:22:38;12.05;;;2.78;;
28623;SDS011;15813;46.932;19.658;2023-04-03T14:25:04;10.00;;;2.75;;
28623;SDS011;15813;46.932;19.658;2023-04-03T14:27:33;5.25;;;1.98;;
28623;SDS011;15813;46.932;19.658;2023-04-03T14:29:59;3.92;;;1.60;;
28623;SDS011;15813;46.932;19.658;2023-04-03T14:32:25;361.23;;;231.05;;
28623;SDS011;15813;46.932;19.658;2023-04-03T14:34:51;620.97;;;269.88;;
28623;SDS011;15813;46.932;19.658;2023-04-03T14:37:19;740.70;;;305.42;;
28623;SDS011;15813;46.932;19.658;2023-04-03T14:39:45;3.25;;;1.42;;
28623;SDS011;15813;46.932;19.658;2023-04-03T14:42:15;3.53;;;1.75;;
28623;SDS011;15813;46.932;19.658;2023-04-03T14:44:41;3.03;;;1.60;;
28623;SDS011;15813;46.932;19.658;2023-04-03T14:47:10;2.88;;;1.45;;
28623;SDS011;15813;46.932;19.658;2023-04-03T14:49:36;3.08;;;1.50;;
28623;SDS011;15813;46.932;19.658;2023-04-03T14:52:01;2.50;;;1.65;;
28623;SDS011;15813;46.932;19.658;2023-04-03T14:54:27;3.45;;;1.85;;
28623;SDS011;15813;46.932;19.658;2023-04-03T14:56:54;2.90;;;1.67;;
28623;SDS011;15813;46.932;19.658;2023-04-03T14:59:20;2.88;;;1.50;;
28623;SDS011;15813;46.932;19.658;2023-04-03T15:01:46;6.95;;;2.25;;
28623;SDS011;15813;46.932;19.658;2023-04-03T15:04:13;3.35;;;1.80;;
28623;SDS011;15813;46.932;19.658;2023-04-03T15:06:38;4.40;;;2.15;;
28623;SDS011;15813;46.932;19.658;2023-04-03T15:09:04;3.75;;;1.60;;
28623;SDS011;15813;46.932;19.658;2023-04-03T15:11:29;4.90;;;1.90;;
28623;SDS011;15813;46.932;19.658;2023-04-03T15:13:54;4.25;;;1.80;;
28623;SDS011;15813;46.932;19.658;2023-04-03T15:16:20;5.10;;;1.75;;
28623;SDS011;15813;46.932;19.658;2023-04-03T15:18:46;5.18;;;2.10;;
28623;SDS011;15813;46.932;19.658;2023-04-03T15:21:12;5.10;;;1.88;;
28623;SDS011;15813;46.932;19.658;2023-04-03T15:23:37;3.15;;;1.65;;
28623;SDS011;15813;46.932;19.658;2023-04-03T15:26:03;3.17;;;1.77;;
28623;SDS011;15813;46.932;19.658;2023-04-03T15:28:30;4.60;;;2.10;;
28623;SDS011;15813;46.932;19.658;2023-04-03T15:30:56;7.18;;;2.58;;
28623;SDS011;15813;46.932;19.658;2023-04-03T15:33:21;6.03;;;2.80;;
28623;SDS011;15813;46.932;19.658;2023-04-03T15:35:47;4.20;;;2.08;;
28623;SDS011;15813;46.932;19.658;2023-04-03T15:38:12;3.08;;;2.10;;
28623;SDS011;15813;46.932;19.658;2023-04-03T15:40:37;4.32;;;1.92;;
28623;SDS011;15813;46.932;19.658;2023-04-03T15:43:03;11.98;;;2.40;;
28623;SDS011;15813;46.932;19.658;2023-04-03T15:45:29;3.35;;;1.88;;
28623;SDS011;15813;46.932;19.658;2023-04-03T15:47:55;5.95;;;2.30;;
28623;SDS011;15813;46.932;19.658;2023-04-03T15:50:21;7.45;;;2.53;;
28623;SDS011;15813;46.932;19.658;2023-04-03T15:52:48;3.65;;;2.00;;
28623;SDS011;15813;46.932;19.658;2023-04-03T15:55:16;3.40;;;1.90;;
28623;SDS011;15813;46.932;19.658;2023-04-03T15:57:41;4.57;;;2.08;;
28623;SDS011;15813;46.932;19.658;2023-04-03T16:00:07;4.80;;;2.10;;
28623;SDS011;15813;46.932;19.658;2023-04-03T16:02:33;5.07;;;2.28;;
28623;SDS011;15813;46.932;19.658;2023-04-03T16:04:58;5.25;;;1.85;;
28623;SDS011;15813;46.932;19.658;2023-04-03T16:07:24;6.05;;;1.90;;
28623;SDS011;15813;46.932;19.658;2023-04-03T16:09:49;7.45;;;2.90;;
28623;SDS011;15813;46.932;19.658;2023-04-03T16:12:14;4.45;;;2.33;;
28623;SDS011;15813;46.932;19.658;2023-04-03T16:14:40;2.38;;;1.77;;
28623;SDS011;15813;46.932;19.658;2023-04-03T16:17:05;3.22;;;1.85;;
28623;SDS011;15813;46.932;19.658;2023-04-03T16:19:30;4.88;;;2.17;;
28623;SDS011;15813;46.932;19.658;2023-04-03T16:21:56;4.03;;;2.28;;
28623;SDS011;15813;46.932;19.658;2023-04-03T16:24:21;3.70;;;2.17;;
28623;SDS011;15813;46.932;19.658;2023-04-03T16:26:47;4.82;;;2.17;;
28623;SDS011;15813;46.932;19.658;2023-04-03T16:29:12;6.93;;;2.65;;
28623;SDS011;15813;46.932;19.658;2023-04-03T16:31:37;2.63;;;1.65;;